createdAt,value
2018-07-05T00:01:39.791Z,19.10
2018-07-05T00:04:20.245Z,19.10
2018-07-05T00:06:59.967Z,19.00
2018-07-05T00:09:39.647Z,19.00
2018-07-05T00:12:19.391Z,19.00
2018-07-05T00:14:58.991Z,19.00
2018-07-05T00:17:38.676Z,19.00
2018-07-05T00:20:18.201Z,18.90
2018-07-05T00:22:57.994Z,18.90
2018-07-05T00:25:37.628Z,18.90
2018-07-05T00:28:17.246Z,18.90
2018-07-05T00:30:56.761Z,18.90
2018-07-05T00:36:11.094Z,18.80
2018-07-05T00:38:51.567Z,18.80
2018-07-05T00:41:31.224Z,18.80
2018-07-05T00:44:10.769Z,18.90
2018-07-05T00:46:50.372Z,18.90
2018-07-05T00:49:30.075Z,18.80
2018-07-05T00:52:09.687Z,18.90
2018-07-05T00:54:49.280Z,18.80
2018-07-05T00:57:28.866Z,18.80
2018-07-05T01:00:08.523Z,18.70
2018-07-05T01:02:48.207Z,18.70
2018-07-05T01:05:27.819Z,18.60
2018-07-05T01:08:07.431Z,18.60
2018-07-05T01:10:47.153Z,18.50
2018-07-05T01:13:27.005Z,18.40
2018-07-05T01:16:06.948Z,18.40
2018-07-05T01:18:46.853Z,18.30
2018-07-05T01:21:26.623Z,18.30
2018-07-05T01:24:06.339Z,18.20
2018-07-05T01:26:45.920Z,18.20
2018-07-05T01:29:25.539Z,18.20
2018-07-05T01:32:05.081Z,18.20
2018-07-05T01:34:44.818Z,18.10
2018-07-05T01:37:24.589Z,18.10
2018-07-05T01:40:04.271Z,18.00
2018-07-05T01:42:43.885Z,18.00
2018-07-05T01:45:23.641Z,17.90
2018-07-05T01:48:04.273Z,17.90
2018-07-05T01:50:44.023Z,17.90
2018-07-05T01:53:23.730Z,17.90
2018-07-05T01:56:03.303Z,17.90
2018-07-05T01:58:43.133Z,17.80
2018-07-05T02:01:23.143Z,17.80
2018-07-05T02:04:02.987Z,17.80
2018-07-05T02:06:42.987Z,17.80
2018-07-05T02:09:23.179Z,17.80
2018-07-05T02:12:02.795Z,17.70
2018-07-05T02:14:42.440Z,17.70
2018-07-05T02:17:22.037Z,17.60
2018-07-05T02:20:01.669Z,17.60
2018-07-05T02:22:42.871Z,17.60
2018-07-05T02:25:22.577Z,17.50
2018-07-05T02:28:02.270Z,17.50
2018-07-05T02:30:41.909Z,17.50
2018-07-05T02:33:21.535Z,17.50
2018-07-05T02:36:01.125Z,17.40
2018-07-05T02:38:40.751Z,17.30
2018-07-05T02:41:20.432Z,17.30
2018-07-05T02:44:00.039Z,17.30
2018-07-05T02:46:39.631Z,17.30
2018-07-05T02:49:19.393Z,17.30
2018-07-05T02:51:58.968Z,17.30
2018-07-05T02:54:38.745Z,17.20
2018-07-05T02:57:19.277Z,17.10
2018-07-05T02:59:58.997Z,17.10
2018-07-05T03:02:38.615Z,17.10
2018-07-05T03:05:18.223Z,17.10
2018-07-05T03:07:57.816Z,17.10
2018-07-05T03:10:37.523Z,17.10
2018-07-05T03:13:17.082Z,17.00
2018-07-05T03:15:56.676Z,17.00
2018-07-05T03:18:36.216Z,17.00
2018-07-05T03:21:15.819Z,17.00
2018-07-05T03:23:55.411Z,17.00
2018-07-05T03:26:35.092Z,16.90
2018-07-05T03:29:14.699Z,16.90
2018-07-05T03:31:55.327Z,16.90
2018-07-05T03:34:35.100Z,17.00
2018-07-05T03:37:14.677Z,16.90
2018-07-05T03:39:54.319Z,16.90
2018-07-05T03:42:33.928Z,16.90
2018-07-05T03:45:13.620Z,16.90
2018-07-05T03:47:53.207Z,16.90
2018-07-05T03:50:32.820Z,16.80
2018-07-05T03:53:12.500Z,16.80
2018-07-05T03:55:52.103Z,16.70
2018-07-05T04:01:05.920Z,16.70
2018-07-05T04:03:45.534Z,16.70
2018-07-05T04:06:25.995Z,16.80
2018-07-05T04:09:05.736Z,16.80
2018-07-05T04:11:45.527Z,16.70
2018-07-05T04:14:25.188Z,16.80
2018-07-05T04:17:04.882Z,16.70
2018-07-05T04:19:47.878Z,16.80
2018-07-05T04:22:27.610Z,16.80
2018-07-05T04:25:07.153Z,16.90
2018-07-05T04:27:46.936Z,16.90
2018-07-05T04:30:26.783Z,16.90
2018-07-05T04:33:06.556Z,16.90
2018-07-05T04:35:46.557Z,17.00
2018-07-05T04:38:26.335Z,17.10
2018-07-05T04:41:06.049Z,17.20
2018-07-05T04:43:45.718Z,17.20
2018-07-05T04:46:25.472Z,17.30
2018-07-05T04:49:05.259Z,17.30
2018-07-05T04:51:45.204Z,17.40
2018-07-05T04:54:24.867Z,17.40
2018-07-05T04:57:05.341Z,17.40
2018-07-05T04:59:44.905Z,17.50
2018-07-05T05:02:24.411Z,17.50
2018-07-05T05:05:04.031Z,17.60
2018-07-05T05:07:43.063Z,17.70
2018-07-05T05:10:22.891Z,17.70
2018-07-05T05:13:02.757Z,17.70
2018-07-05T05:15:42.484Z,17.60
2018-07-05T05:18:22.216Z,17.60
2018-07-05T05:21:01.944Z,17.60
2018-07-05T05:23:41.615Z,17.50
2018-07-05T05:26:23.167Z,17.50
2018-07-05T05:29:02.795Z,17.60
2018-07-05T05:31:42.423Z,17.80
2018-07-05T05:34:22.052Z,17.80
2018-07-05T05:37:01.701Z,17.90
2018-07-05T05:39:41.627Z,17.90
2018-07-05T05:42:21.303Z,17.90
2018-07-05T05:45:00.883Z,18.00
2018-07-05T05:47:40.507Z,18.00
2018-07-05T05:50:20.425Z,18.10
2018-07-05T05:53:00.090Z,18.20
2018-07-05T05:55:39.796Z,18.30
2018-07-05T05:58:19.499Z,18.40
2018-07-05T06:00:59.344Z,18.50
2018-07-05T06:03:39.101Z,18.60
2018-07-05T06:06:19.874Z,18.70
2018-07-05T06:09:00.027Z,18.90
2018-07-05T06:11:39.632Z,19.10
2018-07-05T06:14:20.296Z,19.50
2018-07-05T06:17:00.143Z,19.80
2018-07-05T06:19:39.852Z,20.10
2018-07-05T06:22:19.504Z,20.60
2018-07-05T06:24:59.097Z,20.90
2018-07-05T06:27:38.890Z,21.30
2018-07-05T06:30:18.484Z,22.90
2018-07-05T06:32:58.503Z,26.10
2018-07-05T06:35:38.145Z,28.50
2018-07-05T06:38:17.643Z,30.60
2018-07-05T06:40:57.300Z,32.00
2018-07-05T06:43:36.867Z,32.40
2018-07-05T06:46:16.428Z,32.30
2018-07-05T06:48:56.850Z,32.90
2018-07-05T06:51:36.424Z,33.40
2018-07-05T06:54:15.999Z,33.00
2018-07-05T06:56:55.768Z,33.00
2018-07-05T06:59:35.509Z,33.50
2018-07-05T07:02:15.074Z,33.40
2018-07-05T07:04:54.843Z,33.10
2018-07-05T07:07:35.150Z,33.00
2018-07-05T07:10:15.296Z,32.20
2018-07-05T07:12:55.541Z,32.90
2018-07-05T07:15:36.083Z,32.60
2018-07-05T07:18:16.279Z,32.10
2018-07-05T07:20:56.408Z,31.60
2018-07-05T07:23:36.584Z,30.80
2018-07-05T07:26:16.912Z,31.20
2018-07-05T07:28:57.128Z,31.10
2018-07-05T07:31:37.416Z,30.60
2018-07-05T07:34:17.727Z,30.40
2018-07-05T07:36:58.040Z,30.10
2018-07-05T07:39:37.824Z,29.40
2018-07-05T07:42:05.202Z,28.40
2018-07-05T07:44:32.564Z,27.40
2018-07-05T07:47:00.650Z,27.40
2018-07-05T07:49:28.008Z,27.40
2018-07-05T07:51:55.415Z,27.00
2018-07-05T07:54:22.771Z,27.30
2018-07-05T07:56:51.169Z,27.90
2018-07-05T07:59:18.563Z,28.90
2018-07-05T08:01:45.961Z,29.50
2018-07-05T08:04:13.336Z,29.70
2018-07-05T08:06:40.703Z,29.70
2018-07-05T08:09:08.710Z,29.80
2018-07-05T08:11:36.631Z,30.30
2018-07-05T08:14:04.735Z,30.70
2018-07-05T08:16:32.655Z,30.80
2018-07-05T08:19:00.623Z,30.70
2018-07-05T08:21:28.535Z,30.50
2018-07-05T08:23:56.527Z,30.40
2018-07-05T08:26:24.448Z,29.80
2018-07-05T08:28:52.407Z,29.50
2018-07-05T08:31:20.339Z,29.20
2018-07-05T08:33:48.286Z,29.20
2018-07-05T08:36:16.231Z,29.40
2018-07-05T08:38:44.174Z,29.50
2018-07-05T08:41:12.100Z,29.60
2018-07-05T08:43:40.035Z,29.90
2018-07-05T08:48:36.343Z,30.40
2018-07-05T08:51:04.297Z,30.40
2018-07-05T08:53:32.264Z,30.20
2018-07-05T08:56:00.243Z,30.40
2018-07-05T08:58:28.196Z,30.00
2018-07-05T09:00:56.146Z,29.90
2018-07-05T09:03:24.086Z,30.00
2018-07-05T09:05:52.014Z,29.90
2018-07-05T09:08:19.959Z,30.20
2018-07-05T09:10:47.863Z,29.90
2018-07-05T09:13:15.800Z,29.70
2018-07-05T09:15:43.705Z,29.30
2018-07-05T09:18:11.691Z,28.80
2018-07-05T09:20:39.731Z,28.60
2018-07-05T09:23:07.704Z,28.50
2018-07-05T09:25:35.747Z,28.30
2018-07-05T09:28:03.660Z,28.40
2018-07-05T09:30:31.571Z,28.10
2018-07-05T09:32:58.906Z,28.30
2018-07-05T09:35:26.281Z,28.30
2018-07-05T09:37:53.659Z,28.00
2018-07-05T09:40:21.026Z,27.80
2018-07-05T09:42:48.384Z,28.00
2018-07-05T09:45:15.751Z,27.90
2018-07-05T09:47:43.103Z,27.70
2018-07-05T09:50:10.513Z,27.60
2018-07-05T09:52:37.927Z,27.50
2018-07-05T09:55:05.453Z,27.50
2018-07-05T09:57:32.802Z,27.40
2018-07-05T10:00:00.184Z,27.40
2018-07-05T10:02:27.526Z,27.60
2018-07-05T10:04:55.456Z,27.70
2018-07-05T10:07:22.799Z,27.90
2018-07-05T10:09:50.187Z,27.80
2018-07-05T10:12:17.559Z,27.60
2018-07-05T10:14:44.931Z,27.70
2018-07-05T10:17:12.305Z,27.60
2018-07-05T10:19:39.663Z,27.60
2018-07-05T10:24:34.821Z,27.50
2018-07-05T10:27:02.252Z,27.60
2018-07-05T10:29:42.173Z,27.80
2018-07-05T10:32:21.971Z,27.70
2018-07-05T10:34:49.866Z,27.70
2018-07-05T10:37:23.739Z,27.80
2018-07-05T10:40:04.344Z,27.80
2018-07-05T10:42:44.095Z,27.70
2018-07-05T10:45:24.220Z,27.70
2018-07-05T10:48:03.723Z,27.80
2018-07-05T10:50:43.346Z,27.80
2018-07-05T10:53:23.035Z,27.90
2018-07-05T10:56:02.660Z,27.90
2018-07-05T10:58:42.284Z,27.80
2018-07-05T11:01:21.916Z,27.60
2018-07-05T11:04:01.539Z,27.50
2018-07-05T11:06:41.124Z,27.50
2018-07-05T11:09:20.771Z,27.50
2018-07-05T11:12:00.339Z,27.40
2018-07-05T11:14:39.921Z,27.50
2018-07-05T11:17:19.480Z,27.40
2018-07-05T11:19:59.976Z,27.60
2018-07-05T11:22:39.603Z,27.50
2018-07-05T11:25:19.339Z,27.30
2018-07-05T11:27:58.911Z,27.20
2018-07-05T11:30:38.432Z,26.90
2018-07-05T11:33:18.056Z,27.00
2018-07-05T11:35:57.695Z,27.00
2018-07-05T11:38:37.301Z,27.00
2018-07-05T11:41:17.078Z,27.20
2018-07-05T11:43:56.762Z,27.20
2018-07-05T11:46:36.628Z,26.80
2018-07-05T11:49:16.099Z,26.60
2018-07-05T11:51:55.767Z,26.70
2018-07-05T11:54:35.640Z,26.90
2018-07-05T11:57:15.263Z,27.10
2018-07-05T11:59:55.044Z,27.20
2018-07-05T12:02:34.672Z,27.20
2018-07-05T12:05:14.304Z,27.40
2018-07-05T12:07:54.014Z,27.40
2018-07-05T12:10:33.962Z,27.30
2018-07-05T12:13:13.598Z,27.10
2018-07-05T12:15:53.110Z,27.10
2018-07-05T12:18:32.928Z,27.10
2018-07-05T12:21:12.627Z,27.10
2018-07-05T12:23:52.405Z,27.20
2018-07-05T12:26:32.155Z,27.30
2018-07-05T12:29:12.286Z,27.30
2018-07-05T12:31:52.345Z,27.40
2018-07-05T12:34:32.079Z,27.40
2018-07-05T12:37:11.717Z,27.40
2018-07-05T12:39:51.829Z,27.40
2018-07-05T12:42:32.054Z,27.60
2018-07-05T12:45:11.886Z,27.50
2018-07-05T12:47:51.525Z,27.50
2018-07-05T12:50:31.135Z,27.60
2018-07-05T12:53:10.866Z,27.50
2018-07-05T12:55:50.459Z,27.50
2018-07-05T12:58:30.530Z,27.60
2018-07-05T13:01:10.364Z,27.60
2018-07-05T13:03:49.974Z,27.70
2018-07-05T13:06:29.550Z,27.70
2018-07-05T13:09:09.410Z,27.40
2018-07-05T13:11:49.551Z,27.40
2018-07-05T13:14:29.164Z,27.40
2018-07-05T13:17:08.734Z,27.40
2018-07-05T13:19:48.298Z,27.50
2018-07-05T13:22:27.878Z,27.50
2018-07-05T13:25:07.467Z,27.50
2018-07-05T13:27:47.051Z,27.30
2018-07-05T13:30:26.737Z,27.20
2018-07-05T13:33:06.312Z,27.00
2018-07-05T13:35:46.131Z,26.90
2018-07-05T13:38:25.760Z,26.80
2018-07-05T13:41:05.350Z,26.70
2018-07-05T13:43:45.018Z,26.50
2018-07-05T13:46:25.628Z,26.30
2018-07-05T13:51:38.904Z,26.20
2018-07-05T13:54:18.547Z,26.40
2018-07-05T13:56:58.107Z,26.40
2018-07-05T13:59:37.633Z,26.40
2018-07-05T14:02:17.244Z,26.40
2018-07-05T14:04:56.920Z,26.60
2018-07-05T14:07:36.508Z,26.60
2018-07-05T14:10:16.200Z,26.70
2018-07-05T14:12:56.635Z,26.70
2018-07-05T14:15:38.052Z,26.70
2018-07-05T14:18:17.593Z,26.70
2018-07-05T14:20:57.286Z,26.70
2018-07-05T14:23:36.943Z,26.70
2018-07-05T14:28:50.259Z,26.50
2018-07-05T14:31:29.799Z,26.50
2018-07-05T14:34:09.569Z,26.40
2018-07-05T14:36:49.227Z,26.60
2018-07-05T14:39:28.857Z,26.60
2018-07-05T14:42:08.415Z,26.50
2018-07-05T14:44:48.017Z,26.40
2018-07-05T14:47:27.799Z,26.40
2018-07-05T14:50:07.507Z,26.40
2018-07-05T14:52:47.117Z,26.30
2018-07-05T14:55:26.736Z,26.20
2018-07-05T15:00:40.012Z,26.20
2018-07-05T15:03:19.782Z,26.30
2018-07-05T15:05:59.496Z,26.40
2018-07-05T15:08:39.181Z,26.50
2018-07-05T15:11:18.792Z,26.60
2018-07-05T15:13:59.081Z,26.50
2018-07-05T15:16:38.609Z,26.40
2018-07-05T15:19:18.207Z,26.40
2018-07-05T15:21:57.807Z,26.40
2018-07-05T15:24:37.406Z,26.20
2018-07-05T15:27:17.672Z,26.10
2018-07-05T15:29:57.280Z,26.00
2018-07-05T15:32:37.093Z,26.10
2018-07-05T15:35:16.749Z,26.00
2018-07-05T15:37:56.448Z,26.10
2018-07-05T15:40:36.284Z,26.10
2018-07-05T15:45:49.684Z,25.70
2018-07-05T15:48:30.600Z,25.70
2018-07-05T15:51:10.102Z,25.60
2018-07-05T15:53:49.732Z,25.60
2018-07-05T15:56:29.331Z,25.60
2018-07-05T15:59:08.976Z,25.50
2018-07-05T16:01:48.640Z,25.40
2018-07-05T16:04:28.232Z,25.40
2018-07-05T16:07:07.899Z,25.50
2018-07-05T16:09:47.611Z,25.50
2018-07-05T16:12:27.415Z,25.60
2018-07-05T16:15:07.375Z,25.80
2018-07-05T16:17:46.997Z,25.80
2018-07-05T16:20:26.734Z,25.90
2018-07-05T16:23:06.606Z,25.70
2018-07-05T16:25:46.213Z,25.80
2018-07-05T16:28:25.814Z,25.80
2018-07-05T16:31:05.584Z,25.80
2018-07-05T16:33:45.484Z,25.80
2018-07-05T16:36:25.057Z,25.70
2018-07-05T16:39:05.091Z,25.70
2018-07-05T16:44:18.307Z,25.40
2018-07-05T16:46:57.905Z,25.50
2018-07-05T16:49:37.479Z,25.50
2018-07-05T16:52:17.089Z,25.50
2018-07-05T16:54:56.696Z,25.40
2018-07-05T16:57:36.375Z,25.40
2018-07-05T17:00:15.970Z,25.40
2018-07-05T17:02:55.642Z,25.40
2018-07-05T17:05:35.391Z,25.30
2018-07-05T17:08:15.176Z,25.30
2018-07-05T17:10:55.182Z,25.10
2018-07-05T17:13:34.752Z,25.10
2018-07-05T17:16:14.522Z,25.10
2018-07-05T17:18:54.418Z,25.10
2018-07-05T17:21:34.324Z,25.10
2018-07-05T17:24:14.271Z,25.10
2018-07-05T17:26:54.066Z,25.00
2018-07-05T17:29:33.737Z,24.80
2018-07-05T17:32:13.650Z,24.80
2018-07-05T17:34:53.683Z,24.70
2018-07-05T17:37:33.322Z,24.70
2018-07-05T17:40:12.959Z,24.70
2018-07-05T17:42:52.564Z,24.60
2018-07-05T17:45:32.262Z,24.50
2018-07-05T17:48:11.875Z,24.50
2018-07-05T17:50:51.699Z,24.50
2018-07-05T17:53:32.000Z,24.40
2018-07-05T17:56:11.883Z,24.40
2018-07-05T17:58:51.548Z,24.30
2018-07-05T18:01:31.232Z,24.30
2018-07-05T18:04:10.915Z,24.20
2018-07-05T18:06:51.527Z,24.10
2018-07-05T18:09:31.176Z,24.10
2018-07-05T18:12:10.819Z,24.00
2018-07-05T18:14:50.951Z,24.00
2018-07-05T18:17:30.548Z,23.90
2018-07-05T18:20:10.278Z,23.90
2018-07-05T18:22:49.935Z,23.80
2018-07-05T18:25:29.584Z,23.70
2018-07-05T18:28:09.296Z,23.60
2018-07-05T18:30:49.056Z,23.60
2018-07-05T18:33:28.795Z,23.50
2018-07-05T18:36:08.392Z,23.40
2018-07-05T18:38:48.073Z,23.40
2018-07-05T18:41:28.427Z,23.30
2018-07-05T18:44:08.091Z,23.30
2018-07-05T18:46:47.831Z,23.20
2018-07-05T18:49:27.454Z,23.00
2018-07-05T18:52:07.103Z,22.90
2018-07-05T18:54:46.720Z,22.70
2018-07-05T18:57:26.343Z,22.60
2018-07-05T19:00:05.936Z,22.50
2018-07-05T19:02:46.827Z,22.40
2018-07-05T19:05:26.386Z,22.30
2018-07-05T19:08:06.235Z,22.20
2018-07-05T19:10:45.911Z,22.10
2018-07-05T19:13:25.687Z,22.10
2018-07-05T19:16:05.303Z,22.00
2018-07-05T19:18:45.215Z,22.00
2018-07-05T19:21:24.911Z,21.90
2018-07-05T19:24:05.480Z,21.80
2018-07-05T19:26:45.327Z,21.70
2018-07-05T19:29:24.923Z,21.60
2018-07-05T19:32:04.596Z,21.60
2018-07-05T19:34:44.900Z,21.60
2018-07-05T19:37:24.652Z,21.50
2018-07-05T19:40:04.348Z,21.40
2018-07-05T19:42:43.963Z,21.30
2018-07-05T19:45:23.558Z,21.30
2018-07-05T19:48:03.351Z,21.30
2018-07-05T19:50:43.323Z,21.10
2018-07-05T19:53:23.004Z,21.10
2018-07-05T19:56:02.589Z,21.00
2018-07-05T19:58:43.139Z,21.00
2018-07-05T20:01:23.699Z,20.90
2018-07-05T20:04:03.355Z,20.80
2018-07-05T20:06:43.166Z,20.70
2018-07-05T20:09:22.986Z,20.70
2018-07-05T20:12:05.695Z,20.60
2018-07-05T20:14:45.415Z,20.50
2018-07-05T20:17:25.119Z,20.50
2018-07-05T20:20:04.836Z,20.40
2018-07-05T20:22:44.525Z,20.40
2018-07-05T20:25:24.246Z,20.30
2018-07-05T20:28:04.056Z,20.30
2018-07-05T20:30:43.841Z,20.10
2018-07-05T20:33:23.372Z,20.10
2018-07-05T20:36:03.049Z,20.10
2018-07-05T20:38:42.659Z,20.10
2018-07-05T20:41:22.271Z,20.10
2018-07-05T20:44:01.865Z,20.00
2018-07-05T20:46:41.932Z,19.90
2018-07-05T20:53:04.391Z,19.80
2018-07-05T20:55:43.863Z,19.70
2018-07-05T20:58:23.546Z,19.70
2018-07-05T21:01:03.319Z,19.60
2018-07-05T21:03:43.000Z,19.50
2018-07-05T21:06:22.503Z,19.40
2018-07-05T21:09:02.132Z,19.30
2018-07-05T21:11:41.715Z,19.30
2018-07-05T21:14:21.315Z,19.30
2018-07-05T21:17:00.929Z,19.20
2018-07-05T21:19:40.500Z,19.20
2018-07-05T21:22:20.060Z,19.10
2018-07-05T21:24:59.763Z,19.10
2018-07-05T21:27:39.363Z,19.00
2018-07-05T21:30:18.943Z,19.00
2018-07-05T21:32:58.999Z,19.00
2018-07-05T21:35:38.676Z,18.90
2018-07-05T21:38:18.236Z,18.90
2018-07-05T21:40:57.799Z,18.80
2018-07-05T21:43:37.379Z,18.80
2018-07-05T21:46:16.862Z,18.80
2018-07-05T21:48:56.443Z,18.70
2018-07-05T21:51:36.059Z,18.70
2018-07-05T21:54:15.753Z,18.70
2018-07-05T21:56:55.396Z,18.60
2018-07-05T21:59:34.995Z,18.50
2018-07-05T22:02:14.592Z,18.50
2018-07-05T22:04:54.223Z,18.40
2018-07-05T22:07:34.026Z,18.40
2018-07-05T22:10:13.527Z,18.30
2018-07-05T22:12:53.240Z,18.30
2018-07-05T22:15:32.800Z,18.20
2018-07-05T22:18:17.635Z,18.20
2018-07-05T22:21:02.607Z,18.20
2018-07-05T22:23:47.679Z,18.00
2018-07-05T22:26:33.222Z,18.00
2018-07-05T22:29:18.443Z,18.00
2018-07-05T22:31:59.383Z,18.00
2018-07-05T22:34:38.975Z,17.90
2018-07-05T22:37:18.659Z,17.80
2018-07-05T22:39:58.253Z,17.80
2018-07-05T22:42:38.007Z,17.80
2018-07-05T22:45:17.514Z,17.70
2018-07-05T22:47:57.130Z,17.60
2018-07-05T22:50:36.730Z,17.50
2018-07-05T22:53:16.280Z,17.50
2018-07-05T22:55:55.975Z,17.40
2018-07-05T22:58:35.758Z,17.40
2018-07-05T23:01:15.696Z,17.40
2018-07-05T23:03:55.967Z,17.30
2018-07-05T23:06:35.687Z,17.30
2018-07-05T23:09:15.474Z,17.30
2018-07-05T23:11:55.292Z,17.20
2018-07-05T23:14:36.191Z,17.20
2018-07-05T23:17:15.867Z,17.20
2018-07-05T23:19:55.468Z,17.10
2018-07-05T23:22:35.196Z,17.10
2018-07-05T23:25:14.876Z,17.00
2018-07-05T23:27:54.534Z,17.00
2018-07-05T23:30:34.313Z,16.90
2018-07-05T23:33:13.895Z,16.80
2018-07-05T23:35:53.514Z,16.80
2018-07-05T23:38:33.107Z,16.80
2018-07-05T23:41:13.812Z,16.80
2018-07-05T23:43:53.456Z,16.70
2018-07-05T23:46:33.087Z,16.70
2018-07-05T23:49:12.659Z,16.70
2018-07-05T23:51:52.231Z,16.60
2018-07-05T23:54:31.811Z,16.60
2018-07-05T23:57:11.563Z,16.60
2018-07-05T23:59:51.192Z,16.50
